Time;durP1;ratioP1;P1;durP2;ratioP2;P2;SDS_P1;SDS_P2;PMS_P1;PMS_P2;Temp;Humidity;BMP_temperature;BMP_pressure;BME280_temperature;BME280_humidity;BME280_pressure;Samples;Min_cycle;Max_cycle;Signal;HPM_P1;HPM_P2
2023/10/16 00:01:26;;;;;;;5.10;1.70;;;4.60;99.90;;;;;;5036130;28;20245;-85
2023/10/16 00:03:55;;;;;;;8.67;1.57;;;4.60;99.90;;;;;;5039496;28;20224;-84
2023/10/16 00:06:23;;;;;;;7.43;1.63;;;4.60;99.90;;;;;;5031127;28;20217;-84
2023/10/16 00:08:53;;;;;;;6.40;1.60;;;4.60;99.90;;;;;;5035557;28;20299;-83
2023/10/16 00:11:23;;;;;;;4.30;1.73;;;4.60;99.90;;;;;;5033606;28;20222;-84
2023/10/16 00:13:52;;;;;;;7.57;1.57;;;4.50;99.90;;;;;;5040742;28;20244;-85
2023/10/16 00:16:21;;;;;;;8.67;2.47;;;4.50;99.90;;;;;;5031998;28;20215;-84
2023/10/16 00:18:50;;;;;;;10.63;1.77;;;4.50;99.90;;;;;;5037290;28;20313;-84
2023/10/16 00:21:18;;;;;;;4.90;1.30;;;4.50;99.90;;;;;;5027552;28;20774;-83
2023/10/16 00:23:46;;;;;;;6.63;1.40;;;4.50;99.90;;;;;;5028453;28;20681;-85
2023/10/16 00:26:19;;;;;;;5.80;1.50;;;4.50;99.90;;;;;;5036676;28;20226;-84
2023/10/16 00:29:02;;;;;;;7.23;1.40;;;4.40;99.90;;;;;;5038518;28;20221;-85
2023/10/16 00:31:32;;;;;;;7.73;1.43;;;4.40;99.90;;;;;;5038072;28;20322;-84
2023/10/16 00:33:59;;;;;;;7.67;1.60;;;4.40;99.90;;;;;;5037287;28;20236;-85
2023/10/16 00:36:26;;;;;;;6.30;1.30;;;4.50;99.90;;;;;;5036601;28;20233;-85
2023/10/16 00:38:53;;;;;;;20.87;2.47;;;4.40;99.90;;;;;;5037333;28;20302;-84
2023/10/16 00:41:24;;;;;;;5.17;1.83;;;4.40;99.90;;;;;;5025756;28;20246;-86
2023/10/16 00:43:52;;;;;;;9.63;1.83;;;4.40;99.90;;;;;;5019295;28;20233;-84
2023/10/16 00:46:32;;;;;;;4.13;1.53;;;4.50;99.90;;;;;;5024016;28;20221;-85
2023/10/16 00:49:00;;;;;;;6.27;1.50;;;4.50;99.90;;;;;;5033950;28;20230;-85
2023/10/16 00:51:28;;;;;;;6.23;1.30;;;4.50;99.90;;;;;;5040612;28;20234;-86
2023/10/16 00:53:55;;;;;;;5.60;1.40;;;4.60;99.90;;;;;;5039026;28;20233;-85
2023/10/16 00:56:27;;;;;;;4.63;1.20;;;4.60;99.90;;;;;;5030419;28;20230;-85
2023/10/16 00:58:57;;;;;;;6.43;1.80;;;4.60;99.90;;;;;;5048109;28;20223;-84
2023/10/16 01:01:25;;;;;;;5.30;1.90;;;4.60;99.90;;;;;;5035947;28;20237;-85
2023/10/16 01:03:57;;;;;;;7.83;1.67;;;4.70;99.90;;;;;;5031051;28;20292;-86
2023/10/16 01:06:36;;;;;;;4.17;1.73;;;4.70;99.90;;;;;;5035016;28;22558;-87
2023/10/16 01:09:08;;;;;;;5.27;1.40;;;4.70;99.90;;;;;;5051603;28;20226;-86
2023/10/16 01:11:37;;;;;;;81.20;8.30;;;4.70;99.90;;;;;;5032995;28;20841;-86
2023/10/16 01:14:06;;;;;;;4.80;1.50;;;4.70;99.90;;;;;;5022640;28;20217;-86
2023/10/16 01:16:33;;;;;;;5.40;1.20;;;4.70;99.90;;;;;;5036816;28;20755;-85
2023/10/16 01:19:03;;;;;;;4.30;1.30;;;4.70;99.90;;;;;;5038561;28;20233;-85
2023/10/16 01:21:31;;;;;;;4.93;1.40;;;4.70;99.90;;;;;;5039136;28;20229;-85
2023/10/16 01:24:03;;;;;;;9.63;1.50;;;4.70;99.90;;;;;;5054130;28;20289;-86
2023/10/16 01:26:30;;;;;;;6.87;1.50;;;4.70;99.90;;;;;;5032922;28;21010;-85
2023/10/16 01:28:58;;;;;;;4.57;1.20;;;4.70;99.90;;;;;;5041986;28;20233;-85
2023/10/16 01:31:26;;;;;;;4.07;1.50;;;4.80;99.90;;;;;;5039566;28;20792;-85
2023/10/16 01:33:54;;;;;;;11.90;2.03;;;4.80;99.90;;;;;;5033707;28;20246;-85
2023/10/16 01:36:23;;;;;;;12.10;2.03;;;4.80;99.90;;;;;;5040179;28;20304;-85
2023/10/16 01:38:50;;;;;;;1.83;1.20;;;4.80;99.90;;;;;;5032695;28;20233;-85
2023/10/16 01:41:18;;;;;;;4.40;1.33;;;4.90;99.90;;;;;;5027340;28;20226;-85
2023/10/16 01:43:46;;;;;;;4.73;1.20;;;4.80;99.90;;;;;;5049745;28;20230;-86
2023/10/16 01:46:15;;;;;;;6.20;1.33;;;4.90;99.90;;;;;;5034314;28;20222;-85
2023/10/16 01:48:45;;;;;;;4.47;1.57;;;4.90;99.90;;;;;;5037784;28;20226;-86
2023/10/16 01:51:16;;;;;;;4.70;1.57;;;4.90;99.90;;;;;;5018171;28;20243;-85
2023/10/16 01:53:47;;;;;;;3.13;1.23;;;5.00;99.90;;;;;;5026318;28;20232;-87
2023/10/16 01:56:15;;;;;;;5.33;1.10;;;5.00;99.90;;;;;;5036809;28;20241;-86
2023/10/16 01:58:45;;;;;;;3.93;1.03;;;5.00;99.90;;;;;;5039506;28;20230;-85
2023/10/16 02:01:14;;;;;;;9.93;1.50;;;5.10;99.90;;;;;;5033471;28;20266;-85
2023/10/16 02:03:44;;;;;;;3.37;1.33;;;5.10;99.90;;;;;;5033003;28;20240;-85
2023/10/16 02:06:12;;;;;;;6.17;1.20;;;5.20;99.90;;;;;;5036307;28;20239;-85
2023/10/16 02:08:43;;;;;;;61.43;5.10;;;5.20;99.90;;;;;;5031438;28;20601;-87
2023/10/16 02:11:16;;;;;;;5.67;1.20;;;5.20;99.90;;;;;;5034613;28;20276;-87
2023/10/16 02:13:45;;;;;;;17.70;2.37;;;5.30;99.90;;;;;;5031516;28;20233;-87
2023/10/16 02:16:15;;;;;;;4.43;1.23;;;5.30;99.90;;;;;;5027613;28;20769;-86
2023/10/16 02:18:46;;;;;;;6.20;1.70;;;5.40;99.90;;;;;;5038778;28;20285;-86
2023/10/16 02:21:15;;;;;;;6.17;1.20;;;5.40;99.90;;;;;;5027331;28;20234;-85
2023/10/16 02:23:46;;;;;;;10.07;1.93;;;5.30;99.90;;;;;;5037380;28;20235;-86
2023/10/16 02:26:18;;;;;;;3.40;1.20;;;5.40;99.90;;;;;;5035315;28;20308;-87
2023/10/16 02:28:47;;;;;;;6.50;1.40;;;5.30;99.90;;;;;;5033387;28;20315;-86
2023/10/16 02:31:17;;;;;;;5.67;1.30;;;5.30;99.90;;;;;;5032790;28;20639;-85
2023/10/16 02:33:50;;;;;;;9.33;1.67;;;5.20;99.90;;;;;;5028943;28;20883;-86
2023/10/16 02:36:23;;;;;;;5.17;1.50;;;5.20;99.90;;;;;;5029665;28;20241;-86
2023/10/16 02:38:55;;;;;;;20.10;2.70;;;5.10;99.90;;;;;;5031358;28;20228;-87
2023/10/16 02:41:23;;;;;;;7.00;2.00;;;5.10;99.90;;;;;;5023491;28;20238;-86
2023/10/16 02:43:51;;;;;;;4.63;1.60;;;5.00;99.90;;;;;;5038587;28;20321;-85
2023/10/16 02:46:21;;;;;;;5.93;1.47;;;5.00;99.90;;;;;;5034495;28;20240;-85
2023/10/16 02:48:48;;;;;;;5.07;1.83;;;5.00;99.90;;;;;;5039296;28;20230;-87
2023/10/16 02:51:16;;;;;;;3.13;1.40;;;4.90;99.90;;;;;;5015026;28;20255;-87
2023/10/16 02:53:48;;;;;;;8.77;1.60;;;4.90;99.90;;;;;;5027241;28;20229;-85
2023/10/16 02:56:17;;;;;;;5.20;1.70;;;4.90;99.90;;;;;;5020787;28;20335;-85
2023/10/16 02:58:46;;;;;;;8.33;1.50;;;4.90;99.90;;;;;;5033712;28;20585;-85
2023/10/16 03:01:18;;;;;;;4.47;1.60;;;5.00;99.90;;;;;;5028700;28;20282;-85
2023/10/16 03:03:47;;;;;;;3.90;1.60;;;5.00;99.90;;;;;;5035307;28;20235;-85
2023/10/16 03:06:17;;;;;;;5.70;1.93;;;5.00;99.90;;;;;;5037614;28;20240;-85
2023/10/16 03:08:48;;;;;;;19.70;2.57;;;5.00;99.90;;;;;;5035617;28;20238;-86
2023/10/16 03:11:21;;;;;;;6.77;2.23;;;5.10;99.90;;;;;;5032921;28;20223;-86
2023/10/16 03:13:50;;;;;;;8.97;2.00;;;5.10;99.90;;;;;;5027271;28;20354;-86
2023/10/16 03:16:23;;;;;;;4.10;1.50;;;5.10;99.90;;;;;;5032641;28;20255;-86
2023/10/16 03:18:51;;;;;;;13.73;2.10;;;5.10;99.90;;;;;;5026905;28;20322;-87
2023/10/16 03:21:31;;;;;;;6.90;1.93;;;5.10;99.90;;;;;;5034777;28;20232;-87
2023/10/16 03:23:58;;;;;;;5.07;1.70;;;5.20;99.90;;;;;;5027121;28;20231;-87
2023/10/16 03:26:27;;;;;;;7.03;2.03;;;5.20;99.90;;;;;;5036882;28;20230;-88
2023/10/16 03:28:55;;;;;;;5.63;2.00;;;5.20;99.90;;;;;;5038002;28;20655;-87
2023/10/16 03:31:23;;;;;;;6.53;1.70;;;5.20;99.90;;;;;;5027904;28;20230;-87
2023/10/16 03:33:55;;;;;;;5.07;1.93;;;5.20;99.90;;;;;;5030326;28;20916;-87
2023/10/16 03:36:22;;;;;;;10.63;2.50;;;5.30;99.90;;;;;;5036011;28;20221;-87
2023/10/16 03:38:50;;;;;;;9.93;1.90;;;5.30;99.90;;;;;;5034743;28;20761;-85
2023/10/16 03:41:27;;;;;;;6.10;1.83;;;5.30;99.90;;;;;;5048405;28;20221;-86
2023/10/16 03:43:56;;;;;;;5.50;1.80;;;5.40;99.90;;;;;;5050986;28;20815;-84
2023/10/16 03:46:25;;;;;;;12.10;2.53;;;5.40;99.90;;;;;;5031526;28;20223;-85
2023/10/16 03:48:51;;;;;;;6.00;2.00;;;5.40;99.90;;;;;;5035796;28;20230;-85
2023/10/16 03:51:18;;;;;;;4.90;2.33;;;5.40;99.90;;;;;;5035157;28;20236;-86
2023/10/16 03:53:45;;;;;;;6.00;1.80;;;5.40;99.90;;;;;;5042446;28;20235;-88
2023/10/16 03:56:16;;;;;;;5.57;2.00;;;5.40;99.90;;;;;;5032637;28;20228;-85
2023/10/16 03:58:44;;;;;;;5.23;2.10;;;5.30;99.90;;;;;;5036476;28;20223;-86
2023/10/16 04:01:11;;;;;;;5.50;2.23;;;5.30;99.90;;;;;;5035070;28;20229;-85
2023/10/16 04:03:47;;;;;;;7.23;2.70;;;5.30;99.90;;;;;;5036032;28;20262;-85
2023/10/16 04:06:19;;;;;;;7.60;2.70;;;5.20;99.90;;;;;;5036752;28;20222;-85
2023/10/16 04:08:49;;;;;;;5.10;2.50;;;5.20;99.90;;;;;;5033234;28;20232;-85
2023/10/16 04:11:17;;;;;;;6.97;2.13;;;5.20;99.90;;;;;;5038300;28;20238;-85
2023/10/16 04:13:47;;;;;;;5.70;2.37;;;5.20;99.90;;;;;;5034652;28;20708;-86
2023/10/16 04:16:30;;;;;;;4.23;2.23;;;5.20;99.90;;;;;;5034454;28;20246;-87
2023/10/16 04:19:28;;;;;;;6.80;2.57;;;5.20;99.90;;;;;;5036491;28;20416;-86
2023/10/16 04:21:54;;;;;;;6.07;2.30;;;5.30;99.90;;;;;;5031785;28;20997;-83
2023/10/16 04:24:30;;;;;;;6.47;2.70;;;5.30;99.90;;;;;;5032352;28;20227;-85
2023/10/16 04:29:49;;;;;;;5.83;2.30;;;5.40;99.90;;;;;;5028335;28;20216;-86
2023/10/16 04:32:20;;;;;;;6.13;2.73;;;5.30;99.90;;;;;;5031251;28;20227;-86
2023/10/16 04:34:53;;;;;;;5.87;2.23;;;5.50;99.90;;;;;;5036244;28;20224;-84
2023/10/16 04:37:35;;;;;;;7.07;2.87;;;5.50;99.90;;;;;;5031608;28;20870;-85
2023/10/16 04:43:07;;;;;;;11.90;3.07;;;5.50;99.90;;;;;;5033660;28;20232;-85
2023/10/16 04:45:54;;;;;;;6.63;2.87;;;5.50;99.90;;;;;;5032023;28;20223;-84
2023/10/16 04:51:17;;;;;;;6.43;2.80;;;5.50;99.90;;;;;;5032806;28;20208;-84
2023/10/16 04:54:04;;;;;;;7.97;2.67;;;5.50;99.90;;;;;;5032217;28;20227;-85
2023/10/16 04:56:57;;;;;;;7.17;3.13;;;5.60;99.90;;;;;;5031823;28;20223;-85
2023/10/16 05:02:18;;;;;;;8.37;2.70;;;5.60;99.90;;;;;;5018904;28;20824;-85
2023/10/16 05:05:29;;;;;;;12.87;3.70;;;5.70;99.90;;;;;;5034710;28;20232;-83
2023/10/16 05:08:04;;;;;;;8.77;3.57;;;5.70;99.90;;;;;;5037794;28;20219;-85
2023/10/16 05:13:24;;;;;;;8.17;3.83;;;5.80;99.90;;;;;;5023483;28;20597;-85
2023/10/16 05:18:46;;;;;;;10.47;3.70;;;5.90;99.90;;;;;;5035574;28;20223;-87
2023/10/16 05:22:01;;;;;;;7.23;3.67;;;5.90;99.90;;;;;;5039437;28;20228;-87
2023/10/16 06:14:14;;;;;;;7.00;5.27;;;6.40;99.90;;;;;;5030810;28;20318;-85
2023/10/16 06:16:41;;;;;;;9.30;5.70;;;6.40;99.90;;;;;;5037108;28;21010;-85
2023/10/16 06:19:14;;;;;;;11.13;5.03;;;6.40;99.90;;;;;;5043753;28;20662;-87
2023/10/16 06:21:46;;;;;;;9.03;5.37;;;6.50;99.90;;;;;;5038785;28;20252;-85
2023/10/16 06:24:32;;;;;;;11.63;5.80;;;6.50;99.90;;;;;;5042260;28;20225;-84
2023/10/16 06:27:00;;;;;;;11.57;6.00;;;6.50;99.90;;;;;;5057826;28;20228;-84
2023/10/16 06:29:35;;;;;;;12.03;6.37;;;6.50;99.90;;;;;;5035804;28;20417;-83
2023/10/16 06:32:07;;;;;;;10.97;5.93;;;6.50;99.90;;;;;;5038110;28;20227;-82
2023/10/16 06:34:34;;;;;;;15.73;6.43;;;6.60;99.90;;;;;;5036815;28;20247;-84
2023/10/16 06:37:05;;;;;;;13.77;5.67;;;6.60;99.90;;;;;;5032228;28;20233;-84
2023/10/16 06:39:35;;;;;;;17.07;6.27;;;6.60;99.90;;;;;;5048732;28;20263;-84
2023/10/16 06:42:14;;;;;;;10.43;5.47;;;6.70;99.90;;;;;;5035522;28;20566;-84
2023/10/16 06:44:42;;;;;;;9.03;6.03;;;6.70;99.90;;;;;;5039049;28;20511;-84
2023/10/16 06:47:12;;;;;;;15.47;6.60;;;6.70;99.90;;;;;;5036646;28;20226;-84
2023/10/16 06:49:40;;;;;;;12.00;6.20;;;6.80;99.90;;;;;;5036438;28;20222;-84
2023/10/16 06:52:12;;;;;;;9.10;6.23;;;6.90;99.90;;;;;;5038226;28;20284;-84
2023/10/16 06:54:39;;;;;;;11.10;6.53;;;6.80;99.90;;;;;;5035367;28;20235;-84
2023/10/16 06:57:10;;;;;;;13.87;7.10;;;6.90;99.90;;;;;;5040030;28;20232;-84
2023/10/16 06:59:37;;;;;;;9.97;7.40;;;7.00;99.90;;;;;;5039097;28;20236;-84
2023/10/16 07:02:06;;;;;;;12.70;7.27;;;6.90;99.90;;;;;;5036833;28;20257;-84
2023/10/16 07:04:33;;;;;;;9.53;7.47;;;6.90;99.90;;;;;;5037225;28;20223;-84
2023/10/16 07:07:01;;;;;;;13.13;7.37;;;7.00;99.90;;;;;;5038854;28;20229;-85
2023/10/16 07:09:36;;;;;;;10.83;6.70;;;7.10;99.90;;;;;;5034120;28;20257;-86
2023/10/16 07:12:04;;;;;;;14.57;7.63;;;7.10;99.90;;;;;;5036795;28;20318;-86
2023/10/16 07:14:31;;;;;;;11.93;7.00;;;7.20;99.90;;;;;;5037923;28;20249;-84
2023/10/16 07:17:00;;;;;;;11.67;7.40;;;7.30;99.90;;;;;;5039840;28;21282;-84
2023/10/16 07:19:28;;;;;;;12.00;8.00;;;7.30;99.90;;;;;;5033811;28;20234;-84
2023/10/16 07:21:56;;;;;;;48.03;9.47;;;7.40;99.90;;;;;;5033311;28;20230;-84
2023/10/16 07:24:23;;;;;;;29.73;8.07;;;7.40;99.90;;;;;;5031560;28;20221;-86
2023/10/16 07:26:50;;;;;;;64.97;10.57;;;7.40;99.90;;;;;;5035680;28;20233;-84
2023/10/16 07:29:16;;;;;;;30.33;8.80;;;7.50;99.90;;;;;;5040641;28;20674;-84
2023/10/16 07:31:43;;;;;;;144.73;14.70;;;7.60;99.90;;;;;;5038254;28;20225;-83
2023/10/16 07:34:11;;;;;;;17.83;7.60;;;7.60;99.90;;;;;;5034311;28;20234;-82
2023/10/16 07:36:40;;;;;;;10.90;6.40;;;7.60;99.90;;;;;;5037946;28;20279;-84
2023/10/16 07:39:06;;;;;;;25.70;7.20;;;7.80;99.90;;;;;;5032555;28;20225;-82
2023/10/16 07:41:33;;;;;;;8.23;6.57;;;7.90;99.90;;;;;;5029542;28;20264;-83
2023/10/16 07:44:04;;;;;;;12.00;6.80;;;7.90;99.90;;;;;;5028410;28;20229;-83
2023/10/16 07:46:31;;;;;;;9.47;6.27;;;8.00;99.90;;;;;;5032251;28;20235;-83
2023/10/16 07:49:09;;;;;;;10.57;6.27;;;8.00;99.90;;;;;;5036169;28;20227;-83
2023/10/16 07:51:36;;;;;;;8.17;5.57;;;8.10;99.90;;;;;;5034837;28;20230;-83
2023/10/16 07:54:07;;;;;;;8.37;6.00;;;8.20;99.90;;;;;;5030988;28;20283;-85
2023/10/16 07:56:35;;;;;;;9.57;5.60;;;8.20;99.90;;;;;;5035817;28;20317;-82
2023/10/16 07:59:18;;;;;;;7.53;5.53;;;8.30;99.90;;;;;;5046188;28;20717;-81
2023/10/16 08:01:48;;;;;;;9.47;5.90;;;8.40;99.90;;;;;;5061437;28;20229;-84
2023/10/16 08:04:27;;;;;;;5.87;4.63;;;8.40;99.90;;;;;;5035222;28;20243;-84
2023/10/16 08:06:56;;;;;;;8.50;5.27;;;8.50;99.90;;;;;;5030385;28;20230;-84
2023/10/16 08:12:19;;;;;;;6.30;5.07;;;8.70;99.90;;;;;;5030025;28;20317;-84
2023/10/16 08:14:51;;;;;;;10.27;5.40;;;8.80;99.90;;;;;;5038989;28;20218;-84
2023/10/16 08:17:23;;;;;;;8.13;5.83;;;8.90;99.90;;;;;;5039718;28;20223;-85
2023/10/16 08:19:53;;;;;;;6.97;5.10;;;9.00;99.90;;;;;;5039221;28;20299;-84
2023/10/16 08:22:25;;;;;;;7.80;5.50;;;9.00;99.90;;;;;;5038683;28;20273;-85
2023/10/16 08:25:00;;;;;;;18.20;6.63;;;9.10;99.90;;;;;;5029857;28;20227;-84
2023/10/16 08:27:47;;;;;;;8.63;5.20;;;9.10;99.90;;;;;;5038423;28;20607;-85
2023/10/16 08:30:32;;;;;;;13.40;6.13;;;9.20;99.90;;;;;;5039683;28;20223;-85
2023/10/16 08:33:07;;;;;;;6.23;5.47;;;9.30;99.90;;;;;;5019697;28;20239;-85
2023/10/16 08:35:38;;;;;;;6.87;5.77;;;9.30;99.90;;;;;;5032365;28;20224;-84
2023/10/16 08:38:12;;;;;;;7.17;4.87;;;9.40;99.90;;;;;;5038082;28;20838;-84
2023/10/16 08:40:44;;;;;;;7.97;5.10;;;9.40;99.90;;;;;;5040959;28;20291;-85
2023/10/16 08:43:17;;;;;;;6.67;4.83;;;9.50;99.90;;;;;;5028414;28;20272;-85
2023/10/16 08:45:48;;;;;;;9.27;4.57;;;9.60;99.90;;;;;;5037494;28;20766;-85
2023/10/16 08:48:17;;;;;;;7.40;4.40;;;9.70;99.90;;;;;;5026106;28;20237;-85
2023/10/16 08:50:52;;;;;;;8.57;4.70;;;9.80;99.90;;;;;;5033415;28;20231;-85
2023/10/16 08:56:07;;;;;;;5.87;4.30;;;10.10;99.90;;;;;;5050929;28;20212;-85
2023/10/16 08:58:39;;;;;;;5.30;4.60;;;10.30;99.90;;;;;;5030669;28;20235;-85
2023/10/16 09:01:07;;;;;;;5.87;4.43;;;10.40;99.90;;;;;;5029338;28;21089;-85
2023/10/16 09:03:42;;;;;;;7.10;4.63;;;10.50;99.90;;;;;;5036961;28;20747;-84
2023/10/16 09:06:09;;;;;;;5.63;4.20;;;10.50;99.90;;;;;;5037304;28;20262;-86
2023/10/16 09:08:37;;;;;;;8.77;4.27;;;10.70;99.90;;;;;;5031240;28;20278;-85
2023/10/16 09:11:07;;;;;;;4.67;3.50;;;10.70;99.90;;;;;;5026928;28;20301;-85
2023/10/16 09:13:36;;;;;;;4.67;3.60;;;10.80;99.90;;;;;;5033062;28;20233;-86
2023/10/16 09:16:07;;;;;;;6.30;3.80;;;11.00;99.90;;;;;;5013183;28;20250;-86
2023/10/16 09:18:35;;;;;;;5.43;3.40;;;11.00;99.90;;;;;;5047147;28;20649;-86
2023/10/16 09:21:09;;;;;;;5.43;3.60;;;11.20;99.90;;;;;;5031564;28;20252;-86
2023/10/16 09:23:41;;;;;;;4.57;2.70;;;11.30;99.90;;;;;;5045180;28;20224;-85
2023/10/16 09:26:15;;;;;;;5.67;3.17;;;11.30;99.90;;;;;;5041559;28;20250;-86
2023/10/16 09:28:42;;;;;;;5.03;2.87;;;11.40;99.90;;;;;;5034072;28;20235;-86
2023/10/16 09:31:09;;;;;;;6.17;2.40;;;11.50;99.90;;;;;;5035236;28;20770;-86
2023/10/16 09:33:36;;;;;;;4.33;2.47;;;11.60;99.90;;;;;;5037279;28;20664;-85
2023/10/16 09:36:17;;;;;;;4.03;2.37;;;11.70;99.90;;;;;;5030260;28;20212;-86
2023/10/16 09:38:46;;;;;;;3.60;1.90;;;11.70;99.90;;;;;;5031272;28;20230;-87
2023/10/16 09:44:07;;;;;;;6.60;1.93;;;11.90;99.90;;;;;;5023883;28;20233;-86
2023/10/16 09:46:48;;;;;;;2.60;1.70;;;12.00;99.90;;;;;;5033715;28;20224;-86
2023/10/16 09:49:21;;;;;;;6.00;1.80;;;12.10;99.90;;;;;;5028093;28;20312;-86
2023/10/16 09:51:50;;;;;;;6.97;1.63;;;12.10;99.90;;;;;;5012816;28;20231;-86
2023/10/16 09:54:21;;;;;;;5.27;1.57;;;12.20;99.90;;;;;;5036501;28;20226;-86
2023/10/16 09:56:58;;;;;;;2.20;1.40;;;12.30;99.90;;;;;;5039961;28;20230;-86
2023/10/16 09:59:32;;;;;;;3.90;1.60;;;12.40;99.90;;;;;;5046805;28;20311;-85
2023/10/16 10:02:16;;;;;;;5.50;1.57;;;12.50;99.90;;;;;;5034084;28;20851;-86
2023/10/16 10:04:54;;;;;;;6.77;1.53;;;12.50;99.90;;;;;;5013317;28;20272;-86
2023/10/16 10:07:34;;;;;;;5.57;1.30;;;12.60;99.90;;;;;;5033427;28;20216;-88
2023/10/16 10:10:39;;;;;;;3.17;1.37;;;12.60;99.90;;;;;;5027367;28;20598;-85
2023/10/16 10:12:56;;;;;;;4.70;1.57;;;12.60;99.90;;;;;;5033365;28;20226;-84
2023/10/16 10:15:26;;;;;;;3.40;1.37;;;12.60;99.90;;;;;;5049165;28;20226;-86
2023/10/16 10:18:01;;;;;;;3.73;1.40;;;12.60;99.90;;;;;;5030026;28;21002;-88
2023/10/16 10:20:32;;;;;;;4.33;1.20;;;12.50;99.90;;;;;;5013681;28;20239;-86
2023/10/16 10:23:08;;;;;;;4.43;2.00;;;12.40;99.90;;;;;;5036891;28;20229;-87
2023/10/16 10:25:40;;;;;;;4.30;1.10;;;12.30;99.90;;;;;;5020341;28;20233;-88
2023/10/16 10:28:22;;;;;;;2.97;1.20;;;12.10;99.90;;;;;;5036610;28;20227;-87
2023/10/16 10:31:02;;;;;;;3.60;0.90;;;12.00;99.90;;;;;;5034350;28;20232;-87
2023/10/16 10:33:51;;;;;;;5.30;1.10;;;11.90;99.90;;;;;;5038079;28;20274;-88
2023/10/16 10:36:34;;;;;;;5.30;1.20;;;11.80;99.90;;;;;;5036589;28;20464;-84
2023/10/16 10:39:44;;;;;;;4.43;1.50;;;11.70;99.90;;;;;;5028378;28;20559;-86
2023/10/16 10:42:16;;;;;;;2.90;1.40;;;11.70;99.90;;;;;;5032938;28;20854;-87
2023/10/16 10:45:17;;;;;;;5.07;1.60;;;11.70;99.90;;;;;;5027953;28;20237;-87
2023/10/16 10:47:46;;;;;;;3.07;1.27;;;11.60;99.90;;;;;;5033276;28;20225;-87
2023/10/16 10:50:15;;;;;;;3.37;1.13;;;11.70;99.90;;;;;;5021891;28;20595;-86
2023/10/16 10:52:48;;;;;;;3.93;0.90;;;11.70;99.90;;;;;;5037398;28;20232;-87
2023/10/16 10:55:21;;;;;;;4.73;1.03;;;11.60;99.90;;;;;;5034318;28;20216;-88
2023/10/16 10:57:55;;;;;;;5.57;1.33;;;11.70;99.90;;;;;;5033841;28;20228;-87
2023/10/16 11:03:30;;;;;;;4.07;1.33;;;11.70;99.90;;;;;;5027700;28;20240;-88
2023/10/16 11:06:10;;;;;;;;;;;;;;;;;;;;;
2023/10/16 11:08:47;;;;;;;3.70;1.17;;;11.70;99.90;;;;;;5041657;28;20211;-89
2023/10/16 11:11:15;;;;;;;4.97;1.13;;;11.70;99.90;;;;;;5035330;28;20578;-90
2023/10/16 11:13:53;;;;;;;5.83;1.27;;;11.90;99.90;;;;;;5040131;28;20234;-88
2023/10/16 11:16:28;;;;;;;4.40;1.20;;;12.10;99.90;;;;;;5037555;28;20254;-89
2023/10/16 11:22:47;;;;;;;3.07;0.90;;;12.80;99.90;;;;;;4962585;28;20822;-91
2023/10/16 11:25:20;;;;;;;4.57;0.90;;;13.30;99.90;;;;;;5036082;28;20229;-88
2023/10/16 11:27:53;;;;;;;5.20;1.17;;;13.70;99.90;;;;;;5053087;28;20231;-87
2023/10/16 11:30:26;;;;;;;2.10;0.83;;;14.00;99.90;;;;;;5033245;28;20633;-87
2023/10/16 11:32:57;;;;;;;3.20;0.77;;;14.30;99.90;;;;;;5040037;28;20238;-87
2023/10/16 11:35:34;;;;;;;1.87;0.83;;;14.40;99.90;;;;;;5019492;28;20318;-87
2023/10/16 11:38:12;;;;;;;3.03;0.87;;;14.50;99.90;;;;;;5025751;28;20251;-87
2023/10/16 11:40:42;;;;;;;2.33;0.87;;;14.60;99.90;;;;;;5029312;28;20225;-88
2023/10/16 11:43:11;;;;;;;2.43;0.87;;;14.50;99.90;;;;;;5036259;28;20231;-88
2023/10/16 11:45:39;;;;;;;2.13;0.70;;;14.40;99.90;;;;;;5037588;28;20230;-87
2023/10/16 11:48:25;;;;;;;3.70;0.93;;;14.20;99.90;;;;;;5024945;28;20657;-88
2023/10/16 11:51:05;;;;;;;2.63;1.00;;;14.10;99.90;;;;;;5017706;28;20231;-88
2023/10/16 11:53:34;;;;;;;4.03;0.90;;;14.00;99.90;;;;;;5021466;28;20253;-85
2023/10/16 11:56:01;;;;;;;2.87;1.43;;;13.90;99.90;;;;;;5041801;28;20222;-84
2023/10/16 11:58:31;;;;;;;6.03;1.50;;;13.90;99.90;;;;;;5050078;28;20238;-84
2023/10/16 12:01:08;;;;;;;2.60;1.00;;;13.90;99.90;;;;;;5017384;28;20223;-84
2023/10/16 12:03:38;;;;;;;4.33;1.30;;;13.80;99.90;;;;;;5047613;28;20591;-84
2023/10/16 12:06:09;;;;;;;3.83;0.70;;;13.80;99.90;;;;;;5049420;28;20221;-84
2023/10/16 12:08:37;;;;;;;4.37;1.20;;;13.70;99.90;;;;;;5042799;28;20231;-84
2023/10/16 12:11:06;;;;;;;4.57;0.80;;;13.70;99.90;;;;;;5028678;28;21610;-85
2023/10/16 12:13:33;;;;;;;2.57;1.00;;;13.70;99.90;;;;;;5048827;28;20236;-85
2023/10/16 12:16:00;;;;;;;4.93;0.90;;;13.70;99.90;;;;;;5047612;28;20225;-84
2023/10/16 12:18:28;;;;;;;2.93;0.97;;;13.70;99.90;;;;;;5051455;28;20588;-84
2023/10/16 12:21:04;;;;;;;3.77;0.93;;;13.80;99.90;;;;;;5045388;28;20225;-83
2023/10/16 12:23:34;;;;;;;2.43;0.90;;;13.90;99.90;;;;;;5039570;28;20252;-85
2023/10/16 12:26:02;;;;;;;2.40;0.70;;;13.90;99.90;;;;;;5059893;28;20589;-85
2023/10/16 12:28:31;;;;;;;5.53;1.10;;;14.00;99.90;;;;;;5048382;28;20253;-85
2023/10/16 12:30:59;;;;;;;3.73;0.77;;;14.00;99.90;;;;;;5042543;28;20230;-85
2023/10/16 12:33:26;;;;;;;2.47;0.80;;;14.00;99.90;;;;;;5011469;28;20233;-84
2023/10/16 12:35:55;;;;;;;3.53;0.80;;;14.00;99.90;;;;;;5043284;28;20234;-84
2023/10/16 12:38:24;;;;;;;4.73;1.20;;;14.00;99.90;;;;;;5041974;28;20237;-84
2023/10/16 12:40:55;;;;;;;3.73;1.37;;;14.00;99.90;;;;;;5035882;28;20316;-84
2023/10/16 12:43:27;;;;;;;2.83;0.97;;;14.00;99.90;;;;;;5027312;28;20214;-83
2023/10/16 12:45:56;;;;;;;3.70;0.90;;;14.00;99.90;;;;;;5041953;28;20314;-84
2023/10/16 12:48:28;;;;;;;2.07;0.87;;;14.00;99.90;;;;;;5034939;28;20237;-84
2023/10/16 12:50:59;;;;;;;6.87;1.30;;;13.90;99.90;;;;;;5045064;28;20713;-84
2023/10/16 12:53:28;;;;;;;4.10;1.17;;;14.00;99.90;;;;;;5044578;28;20236;-84
2023/10/16 12:55:58;;;;;;;3.80;0.93;;;13.90;99.90;;;;;;5043149;28;20234;-84
2023/10/16 12:58:26;;;;;;;4.80;1.00;;;13.90;99.90;;;;;;5031181;28;20667;-84
2023/10/16 13:00:53;;;;;;;4.00;0.77;;;13.90;99.90;;;;;;5042449;28;20608;-85
2023/10/16 13:03:21;;;;;;;3.13;0.87;;;13.80;99.90;;;;;;5037258;28;20703;-86
2023/10/16 13:05:48;;;;;;;3.53;1.00;;;13.70;99.90;;;;;;5043546;28;20229;-85
2023/10/16 13:08:17;;;;;;;2.10;0.80;;;13.60;99.90;;;;;;5043461;28;20229;-85
2023/10/16 13:10:48;;;;;;;3.33;0.80;;;13.50;99.90;;;;;;5045191;28;20224;-83
2023/10/16 13:13:26;;;;;;;4.07;0.90;;;13.40;99.90;;;;;;5040334;28;20217;-81
2023/10/16 13:15:54;;;;;;;2.63;0.90;;;13.30;99.90;;;;;;5034096;28;20252;-84
2023/10/16 13:18:27;;;;;;;4.63;0.93;;;13.20;99.90;;;;;;5041091;28;20303;-81
2023/10/16 13:20:57;;;;;;;3.63;0.87;;;13.00;99.90;;;;;;5033037;28;20221;-84
2023/10/16 13:23:26;;;;;;;4.10;1.40;;;12.90;99.90;;;;;;5035817;28;20227;-86
2023/10/16 13:25:56;;;;;;;2.57;1.33;;;12.80;99.90;;;;;;5033753;28;20235;-85
2023/10/16 13:28:25;;;;;;;3.97;1.03;;;12.50;99.90;;;;;;5041535;28;20222;-85
2023/10/16 13:30:52;;;;;;;4.30;1.00;;;12.40;99.90;;;;;;5023791;28;20218;-87
2023/10/16 13:33:20;;;;;;;2.93;0.90;;;12.30;99.90;;;;;;5027152;28;20713;-87
2023/10/16 13:35:50;;;;;;;2.37;0.63;;;12.20;99.90;;;;;;5034444;28;20212;-87
2023/10/16 13:38:18;;;;;;;4.63;0.90;;;12.10;99.90;;;;;;5035335;28;20286;-86
2023/10/16 13:40:46;;;;;;;2.17;0.70;;;12.10;99.90;;;;;;5038501;28;20650;-86
2023/10/16 13:43:17;;;;;;;5.30;0.90;;;12.00;99.90;;;;;;5032775;28;20228;-87
2023/10/16 13:45:46;;;;;;;6.77;1.30;;;11.90;99.90;;;;;;5022833;28;20315;-87
2023/10/16 13:48:15;;;;;;;2.63;0.80;;;11.80;99.90;;;;;;5015040;28;20918;-88
2023/10/16 13:50:43;;;;;;;3.10;1.10;;;11.80;99.90;;;;;;5021703;28;20228;-86
2023/10/16 13:53:10;;;;;;;2.27;0.80;;;11.70;99.90;;;;;;5038147;28;20330;-87
2023/10/16 13:55:37;;;;;;;4.83;1.13;;;11.70;99.90;;;;;;5051549;28;20224;-86
2023/10/16 13:58:07;;;;;;;4.93;0.90;;;11.70;99.90;;;;;;5032048;28;20216;-86
2023/10/16 14:00:36;;;;;;;3.93;1.30;;;11.60;99.90;;;;;;5024040;28;20252;-87
2023/10/16 14:03:07;;;;;;;3.93;1.13;;;11.60;99.90;;;;;;5028542;28;20383;-84
2023/10/16 14:05:40;;;;;;;4.57;1.00;;;11.50;99.90;;;;;;5031851;28;20689;-86
2023/10/16 14:08:10;;;;;;;4.20;1.03;;;11.50;99.90;;;;;;5036629;28;20233;-86
2023/10/16 14:10:45;;;;;;;4.30;0.90;;;11.50;99.90;;;;;;5035717;28;20228;-87
2023/10/16 14:13:18;;;;;;;4.40;1.50;;;11.40;99.90;;;;;;5034308;28;20231;-84
2023/10/16 14:15:49;;;;;;;3.70;0.90;;;11.40;99.90;;;;;;5031289;28;20270;-86
2023/10/16 14:18:20;;;;;;;3.33;1.10;;;11.40;99.90;;;;;;5028795;28;20222;-86
2023/10/16 14:20:48;;;;;;;2.50;0.90;;;11.40;99.90;;;;;;5034648;28;20220;-87
2023/10/16 14:23:15;;;;;;;6.10;1.10;;;11.30;99.90;;;;;;5031355;28;20235;-87
2023/10/16 14:25:47;;;;;;;5.47;0.97;;;11.30;99.90;;;;;;5024903;28;20225;-86
2023/10/16 14:28:25;;;;;;;6.00;1.30;;;11.30;99.90;;;;;;5030053;28;20262;-86
2023/10/16 14:30:56;;;;;;;3.07;1.10;;;11.30;99.90;;;;;;5031269;28;20231;-86
2023/10/16 14:33:28;;;;;;;2.37;0.87;;;11.30;99.90;;;;;;5049667;28;20304;-86
2023/10/16 14:35:56;;;;;;;6.43;1.00;;;11.40;99.90;;;;;;5050846;28;20223;-85
2023/10/16 14:38:23;;;;;;;3.23;0.80;;;11.30;99.90;;;;;;5023959;28;20220;-86